Time;durP1;ratioP1;P1;durP2;ratioP2;P2;SDS_P1;SDS_P2;PMS_P1;PMS_P2;Temp;Humidity;BMP_temperature;BMP_pressure;BME280_temperature;BME280_humidity;BME280_pressure;Samples;Min_cycle;Max_cycle;Signal;HPM_P1;HPM_P2
2022/09/27 00:02:07;;;;;;;9.43;1.10;;;;;;;;;;4976906;28;89328;-78
2022/09/27 00:04:33;;;;;;;10.27;2.08;;;;;;;;;;4973267;28;88055;-77
2022/09/27 00:07:01;;;;;;;9.15;1.10;;;;;;;;;;4979250;28;88765;-77
2022/09/27 00:09:27;;;;;;;3.42;0.90;;;;;;;;;;4978703;28;89004;-77
2022/09/27 00:11:53;;;;;;;10.88;0.80;;;;;;;;;;4979885;28;89529;-77
2022/09/27 00:14:19;;;;;;;6.63;0.80;;;;;;;;;;4979464;28;88797;-77
2022/09/27 00:16:46;;;;;;;4.18;0.90;;;;;;;;;;4979594;28;88957;-78
2022/09/27 00:19:14;;;;;;;4.13;0.80;;;;;;;;;;4963079;28;88186;-78
2022/09/27 00:21:42;;;;;;;4.60;0.70;;;;;;;;;;4981503;28;92633;-78
2022/09/27 00:24:13;;;;;;;3.63;0.80;;;;;;;;;;4979990;28;89282;-77
2022/09/27 00:26:39;;;;;;;4.28;0.55;;;;;;;;;;4978603;28;89396;-76
2022/09/27 00:29:05;;;;;;;8.63;1.48;;;;;;;;;;4980308;28;89013;-77
2022/09/27 00:31:31;;;;;;;3.67;0.68;;;;;;;;;;4978711;28;88884;-77
2022/09/27 00:34:00;;;;;;;5.78;0.82;;;;;;;;;;4978810;28;89358;-76
2022/09/27 00:36:27;;;;;;;2.25;0.93;;;;;;;;;;4979054;28;88941;-78
2022/09/27 00:38:53;;;;;;;6.72;1.15;;;;;;;;;;4979424;28;88122;-77
2022/09/27 00:41:24;;;;;;;5.70;0.98;;;;;;;;;;4977772;28;88685;-76
2022/09/27 00:43:54;;;;;;;7.20;1.25;;;;;;;;;;4981955;28;90039;-76
2022/09/27 00:46:28;;;;;;;8.98;1.08;;;;;;;;;;4970874;28;88805;-78
2022/09/27 00:49:15;;;;;;;6.07;0.75;;;;;;;;;;4980597;28;89466;-77
2022/09/27 00:51:42;;;;;;;3.88;0.80;;;;;;;;;;4977837;28;89006;-76
2022/09/27 00:54:11;;;;;;;4.90;0.90;;;;;;;;;;4975392;28;89710;-78
2022/09/27 00:56:37;;;;;;;8.88;0.98;;;;;;;;;;4983088;28;90651;-75
2022/09/27 00:59:25;;;;;;;3.22;0.90;;;;;;;;;;4977477;28;88242;-77
2022/09/27 01:01:51;;;;;;;4.03;0.60;;;;;;;;;;4971460;28;88759;-77
2022/09/27 01:04:21;;;;;;;2.67;0.68;;;;;;;;;;4994349;28;89325;-78
2022/09/27 01:06:47;;;;;;;8.35;0.80;;;;;;;;;;4979586;28;89356;-78
2022/09/27 01:09:13;;;;;;;6.30;0.77;;;;;;;;;;4978144;28;89084;-76
2022/09/27 01:11:43;;;;;;;3.95;0.82;;;;;;;;;;4983906;28;89093;-77
2022/09/27 01:14:33;;;;;;;2.90;1.10;;;;;;;;;;4997623;28;88808;-78
2022/09/27 01:17:12;;;;;;;1.85;0.45;;;;;;;;;;4989267;28;89989;-78
2022/09/27 01:19:38;;;;;;;5.88;0.70;;;;;;;;;;4989798;28;88059;-77
2022/09/27 01:22:17;;;;;;;3.38;0.60;;;;;;;;;;4983068;28;89157;-78
2022/09/27 01:25:09;;;;;;;3.40;0.50;;;;;;;;;;4989323;28;88062;-77
2022/09/27 01:27:42;;;;;;;3.95;0.80;;;;;;;;;;4991993;28;88128;-78
2022/09/27 01:30:20;;;;;;;4.25;0.50;;;;;;;;;;4977968;28;88195;-74
2022/09/27 01:32:46;;;;;;;4.13;0.63;;;;;;;;;;4977090;28;89434;-78
2022/09/27 01:35:19;;;;;;;5.72;0.60;;;;;;;;;;4971674;28;88757;-78
2022/09/27 01:37:51;;;;;;;5.40;0.93;;;;;;;;;;4973852;28;88978;-77
2022/09/27 01:40:28;;;;;;;5.80;0.70;;;;;;;;;;4975218;28;87881;-78
2022/09/27 01:42:55;;;;;;;7.95;0.73;;;;;;;;;;4978726;28;88922;-78
2022/09/27 01:45:33;;;;;;;3.90;0.75;;;;;;;;;;4977540;28;89965;-77
2022/09/27 01:48:06;;;;;;;2.30;0.68;;;;;;;;;;4993710;28;89187;-78
2022/09/27 01:50:41;;;;;;;6.55;0.73;;;;;;;;;;4990146;28;89524;-78
2022/09/27 01:53:24;;;;;;;3.92;0.52;;;;;;;;;;4979140;28;88049;-78
2022/09/27 01:55:52;;;;;;;3.67;0.70;;;;;;;;;;4986475;28;90392;-78
2022/09/27 01:58:39;;;;;;;6.93;0.98;;;;;;;;;;4981215;28;90016;-77
2022/09/27 02:01:07;;;;;;;4.28;0.60;;;;;;;;;;4976608;28;90415;-77
2022/09/27 02:03:35;;;;;;;6.30;1.13;;;;;;;;;;4981154;28;88835;-77
2022/09/27 02:06:06;;;;;;;3.55;0.68;;;;;;;;;;4986096;28;88273;-77
2022/09/27 02:08:35;;;;;;;6.03;1.13;;;;;;;;;;4978263;28;88024;-78
2022/09/27 02:11:03;;;;;;;5.55;0.82;;;;;;;;;;4984681;28;88776;-78
2022/09/27 02:13:33;;;;;;;3.22;0.80;;;;;;;;;;4981549;28;90779;-78
2022/09/27 02:16:05;;;;;;;4.03;0.90;;;;;;;;;;4985158;28;90524;-76
2022/09/27 02:18:34;;;;;;;7.97;1.05;;;;;;;;;;4979953;28;89195;-78
2022/09/27 02:21:04;;;;;;;9.00;1.30;;;;;;;;;;4981006;28;88932;-77
2022/09/27 02:23:42;;;;;;;9.88;1.15;;;;;;;;;;4982443;28;88898;-77
2022/09/27 02:26:17;;;;;;;7.40;1.02;;;;;;;;;;4982794;28;89016;-78
2022/09/27 02:28:46;;;;;;;8.55;0.80;;;;;;;;;;4980849;28;88029;-78
2022/09/27 02:31:12;;;;;;;5.35;1.17;;;;;;;;;;4983781;28;89758;-77
2022/09/27 02:33:39;;;;;;;7.68;0.90;;;;;;;;;;4977758;28;88841;-77
2022/09/27 02:36:05;;;;;;;5.35;0.82;;;;;;;;;;4981323;28;88789;-78
2022/09/27 02:38:32;;;;;;;7.28;0.90;;;;;;;;;;4976184;28;90687;-78
2022/09/27 02:40:58;;;;;;;3.42;0.70;;;;;;;;;;4987333;28;88952;-78
2022/09/27 02:43:26;;;;;;;5.85;0.75;;;;;;;;;;4978588;28;89044;-78
2022/09/27 02:45:55;;;;;;;4.10;0.75;;;;;;;;;;4975976;28;88967;-78
2022/09/27 02:48:34;;;;;;;6.85;0.98;;;;;;;;;;4976692;28;88091;-78
2022/09/27 02:51:09;;;;;;;4.75;1.00;;;;;;;;;;4977241;28;88731;-75
2022/09/27 02:53:40;;;;;;;3.65;0.98;;;;;;;;;;4975428;28;88069;-75
2022/09/27 02:56:45;;;;;;;3.22;1.50;;;;;;;;;;4982925;28;87830;-75
2022/09/27 02:59:15;;;;;;;6.47;0.88;;;;;;;;;;4968264;28;88668;-76
2022/09/27 03:02:11;;;;;;;10.40;1.85;;;;;;;;;;4971413;28;89668;-75
2022/09/27 03:04:41;;;;;;;10.15;1.30;;;;;;;;;;4959943;28;88849;-75
2022/09/27 03:07:08;;;;;;;4.10;0.77;;;;;;;;;;4973008;28;88923;-77
2022/09/27 03:09:44;;;;;;;8.90;1.38;;;;;;;;;;4972084;28;88214;-76
2022/09/27 03:12:10;;;;;;;5.07;1.08;;;;;;;;;;4972485;28;88779;-77
2022/09/27 03:14:36;;;;;;;6.43;0.90;;;;;;;;;;4979194;28;89049;-75
2022/09/27 03:17:02;;;;;;;6.97;1.42;;;;;;;;;;4974700;28;88250;-77
2022/09/27 03:19:29;;;;;;;12.18;1.20;;;;;;;;;;4972197;28;88775;-77
2022/09/27 03:21:55;;;;;;;8.18;1.15;;;;;;;;;;4981876;28;89254;-77
2022/09/27 03:24:21;;;;;;;7.82;1.58;;;;;;;;;;4978153;28;89704;-77
2022/09/27 03:26:48;;;;;;;8.05;1.17;;;;;;;;;;4975977;28;90009;-77
2022/09/27 03:29:15;;;;;;;10.60;1.33;;;;;;;;;;4977430;28;89427;-77
2022/09/27 03:31:41;;;;;;;9.80;1.30;;;;;;;;;;4982602;28;88477;-74
2022/09/27 03:34:07;;;;;;;4.90;1.20;;;;;;;;;;4978608;28;88978;-76
2022/09/27 03:36:34;;;;;;;10.90;1.23;;;;;;;;;;4981650;28;88062;-76
2022/09/27 03:39:00;;;;;;;7.57;1.70;;;;;;;;;;4987068;28;88355;-76
2022/09/27 03:41:26;;;;;;;6.95;1.45;;;;;;;;;;4995849;28;88082;-77
2022/09/27 03:43:55;;;;;;;7.47;1.27;;;;;;;;;;4998369;28;91608;-77
2022/09/27 03:46:21;;;;;;;10.23;1.08;;;;;;;;;;4985402;28;88937;-77
2022/09/27 03:48:48;;;;;;;11.50;1.30;;;;;;;;;;4979882;28;89722;-76
2022/09/27 03:51:14;;;;;;;9.65;1.92;;;;;;;;;;4992781;28;89759;-76
2022/09/27 03:53:41;;;;;;;7.40;1.38;;;;;;;;;;4980198;28;90691;-76
2022/09/27 03:56:08;;;;;;;8.95;1.17;;;;;;;;;;4992780;28;88428;-77
2022/09/27 03:58:34;;;;;;;9.55;2.35;;;;;;;;;;4996778;28;88041;-77
2022/09/27 04:01:01;;;;;;;12.90;1.67;;;;;;;;;;4979588;28;89028;-76
2022/09/27 04:03:27;;;;;;;10.40;1.23;;;;;;;;;;4987314;28;88410;-77
2022/09/27 04:05:53;;;;;;;12.63;1.60;;;;;;;;;;4985372;28;89027;-76
2022/09/27 04:08:21;;;;;;;10.95;1.38;;;;;;;;;;4979010;28;88981;-76
2022/09/27 04:10:47;;;;;;;9.13;1.42;;;;;;;;;;4978947;28;88826;-77
2022/09/27 04:13:13;;;;;;;10.45;1.88;;;;;;;;;;4977100;28;89014;-77
2022/09/27 04:15:39;;;;;;;14.40;2.03;;;;;;;;;;4979865;28;89011;-77
2022/09/27 04:18:06;;;;;;;12.52;2.08;;;;;;;;;;4977977;28;88987;-77
2022/09/27 04:20:32;;;;;;;12.40;2.00;;;;;;;;;;4979591;28;88907;-77
2022/09/27 04:22:58;;;;;;;19.95;2.20;;;;;;;;;;4978000;28;88057;-77
2022/09/27 04:25:24;;;;;;;12.43;2.22;;;;;;;;;;4985917;28;89970;-77
2022/09/27 04:27:53;;;;;;;7.63;1.27;;;;;;;;;;4983654;28;88038;-77
2022/09/27 04:30:20;;;;;;;10.77;1.27;;;;;;;;;;4982025;28;88018;-77
2022/09/27 04:32:46;;;;;;;10.35;1.65;;;;;;;;;;4977009;28;93389;-77
2022/09/27 04:37:58;;;;;;;10.07;1.85;;;;;;;;;;4976686;28;95067;-77
2022/09/27 04:40:25;;;;;;;6.38;1.23;;;;;;;;;;4995426;28;94414;-77
2022/09/27 04:42:51;;;;;;;13.82;1.83;;;;;;;;;;4988666;28;95048;-76
2022/09/27 04:45:18;;;;;;;13.18;1.85;;;;;;;;;;4978863;28;95474;-77
2022/09/27 04:47:45;;;;;;;8.38;1.50;;;;;;;;;;4980113;28;94487;-76
2022/09/27 04:50:11;;;;;;;8.05;1.38;;;;;;;;;;4989765;28;94373;-76
2022/09/27 04:52:39;;;;;;;9.30;1.17;;;;;;;;;;4972670;28;93413;-75
2022/09/27 04:55:06;;;;;;;6.53;1.35;;;;;;;;;;4973764;28;93833;-77
2022/09/27 04:57:32;;;;;;;15.43;1.58;;;;;;;;;;4974083;28;93196;-74
2022/09/27 04:59:59;;;;;;;8.30;1.42;;;;;;;;;;4977925;28;92604;-76
2022/09/27 05:02:26;;;;;;;4.30;1.08;;;;;;;;;;4984822;28;92397;-75
2022/09/27 05:04:55;;;;;;;4.85;1.42;;;;;;;;;;4974698;28;95278;-71
2022/09/27 05:07:21;;;;;;;8.55;1.08;;;;;;;;;;4978624;28;97414;-72
2022/09/27 05:09:47;;;;;;;12.43;1.30;;;;;;;;;;4977178;28;92439;-73
2022/09/27 05:12:14;;;;;;;12.85;1.10;;;;;;;;;;4974027;28;93411;-75
2022/09/27 05:14:40;;;;;;;5.90;1.15;;;;;;;;;;4975745;28;93054;-75
2022/09/27 05:17:06;;;;;;;8.55;1.45;;;;;;;;;;4974282;28;94396;-75
2022/09/27 05:19:33;;;;;;;7.50;1.20;;;;;;;;;;4980840;28;93411;-71
2022/09/27 05:21:59;;;;;;;8.48;1.48;;;;;;;;;;4975805;28;92501;-71
2022/09/27 05:24:30;;;;;;;4.45;1.00;;;;;;;;;;4976803;28;93075;-69
2022/09/27 05:26:57;;;;;;;3.17;1.00;;;;;;;;;;4975873;28;93235;-70
2022/09/27 05:29:23;;;;;;;14.52;1.20;;;;;;;;;;4974224;28;92413;-71
2022/09/27 05:31:49;;;;;;;4.88;1.10;;;;;;;;;;4977215;28;94880;-76
2022/09/27 05:34:16;;;;;;;7.68;1.70;;;;;;;;;;4988089;28;92385;-71
2022/09/27 05:36:45;;;;;;;5.07;1.52;;;;;;;;;;4980550;28;94108;-70
2022/09/27 05:39:11;;;;;;;15.40;2.47;;;;;;;;;;4975662;28;93474;-71
2022/09/27 05:41:39;;;;;;;7.03;1.42;;;;;;;;;;4974680;28;92621;-72
2022/09/27 05:44:06;;;;;;;10.90;1.95;;;;;;;;;;4975523;28;93190;-71
2022/09/27 05:46:32;;;;;;;6.78;1.67;;;;;;;;;;4975443;28;94501;-70
2022/09/27 05:48:59;;;;;;;7.45;1.80;;;;;;;;;;4989946;28;91791;-71
2022/09/27 05:51:25;;;;;;;3.72;1.48;;;;;;;;;;4989034;28;93441;-68
2022/09/27 05:53:51;;;;;;;11.98;1.70;;;;;;;;;;4975671;28;92481;-70
2022/09/27 05:56:17;;;;;;;8.45;1.90;;;;;;;;;;4973133;28;95053;-71
2022/09/27 05:58:44;;;;;;;9.93;1.67;;;;;;;;;;4975256;28;93523;-71
2022/09/27 06:01:10;;;;;;;7.85;1.83;;;;;;;;;;4974923;28;92452;-73
2022/09/27 06:03:36;;;;;;;6.43;1.85;;;;;;;;;;4975433;28;93124;-71
2022/09/27 06:06:05;;;;;;;7.82;1.90;;;;;;;;;;4988388;28;92464;-74
2022/09/27 06:08:33;;;;;;;6.68;1.38;;;;;;;;;;4968947;28;92615;-73
2022/09/27 06:11:03;;;;;;;3.42;1.55;;;;;;;;;;4961173;28;92505;-73
2022/09/27 06:13:29;;;;;;;4.17;1.63;;;;;;;;;;4978904;28;92716;-72
2022/09/27 06:15:57;;;;;;;6.95;1.55;;;;;;;;;;4973864;28;92527;-73
2022/09/27 06:18:23;;;;;;;5.72;1.27;;;;;;;;;;4975086;28;93563;-73
2022/09/27 06:20:50;;;;;;;5.88;1.30;;;;;;;;;;4972526;28;95473;-74
2022/09/27 06:23:18;;;;;;;8.38;1.38;;;;;;;;;;4990063;28;95547;-75
2022/09/27 06:25:45;;;;;;;6.03;1.70;;;;;;;;;;4974501;28;93520;-72
2022/09/27 06:28:13;;;;;;;2.45;0.80;;;;;;;;;;4975812;28;92439;-72
2022/09/27 06:30:40;;;;;;;8.70;1.15;;;;;;;;;;4975567;28;93194;-73
2022/09/27 06:33:06;;;;;;;6.55;1.58;;;;;;;;;;4974405;28;94724;-73
2022/09/27 06:35:34;;;;;;;6.43;1.30;;;;;;;;;;4993253;28;92565;-73
2022/09/27 06:38:04;;;;;;;4.03;0.90;;;;;;;;;;4976276;28;93883;-72
2022/09/27 06:40:30;;;;;;;7.65;1.48;;;;;;;;;;4975618;28;92418;-73
2022/09/27 06:43:03;;;;;;;4.13;0.93;;;;;;;;;;4973340;28;93160;-69
2022/09/27 06:45:30;;;;;;;8.23;1.23;;;;;;;;;;4958080;28;94799;-75
2022/09/27 06:47:57;;;;;;;4.05;1.00;;;;;;;;;;4974755;28;92456;-74
2022/09/27 06:50:23;;;;;;;4.85;0.98;;;;;;;;;;4993434;28;93198;-74
2022/09/27 06:52:49;;;;;;;6.65;1.30;;;;;;;;;;4985405;28;93430;-74
2022/09/27 06:55:15;;;;;;;8.32;1.13;;;;;;;;;;4974792;28;92453;-74
2022/09/27 07:00:27;;;;;;;4.50;0.90;;;;;;;;;;4975271;28;92639;-75
2022/09/27 07:02:56;;;;;;;4.95;1.15;;;;;;;;;;4979868;28;93193;-71
2022/09/27 07:05:22;;;;;;;13.45;1.50;;;;;;;;;;4988588;28;93420;-73
2022/09/27 07:07:50;;;;;;;16.33;1.63;;;;;;;;;;4995702;28;92409;-73
2022/09/27 07:10:17;;;;;;;7.00;1.67;;;;;;;;;;4985088;28;94723;-72
2022/09/27 07:12:46;;;;;;;7.20;1.40;;;;;;;;;;4972390;28;94563;-73
2022/09/27 07:15:12;;;;;;;12.75;1.58;;;;;;;;;;4976985;28;92954;-72
2022/09/27 07:17:38;;;;;;;8.95;1.85;;;;;;;;;;4995160;28;92468;-72
2022/09/27 07:20:05;;;;;;;7.95;1.75;;;;;;;;;;4987531;28;92989;-74
2022/09/27 07:22:31;;;;;;;14.85;1.75;;;;;;;;;;4956449;28;93023;-74
2022/09/27 07:24:58;;;;;;;9.32;2.30;;;;;;;;;;4964546;28;93396;-71
2022/09/27 07:27:25;;;;;;;5.28;1.27;;;;;;;;;;4975209;28;91693;-72
2022/09/27 07:29:51;;;;;;;5.85;1.30;;;;;;;;;;4975046;28;92457;-73
2022/09/27 07:32:18;;;;;;;4.90;1.23;;;;;;;;;;4974431;28;93351;-75
2022/09/27 07:34:44;;;;;;;5.68;0.95;;;;;;;;;;4972908;28;94765;-73
2022/09/27 07:37:10;;;;;;;4.57;0.95;;;;;;;;;;4975404;28;95624;-73
2022/09/27 07:39:36;;;;;;;5.95;1.23;;;;;;;;;;4980717;28;94074;-73
2022/09/27 07:42:04;;;;;;;10.18;1.40;;;;;;;;;;4984615;28;92492;-73
2022/09/27 07:44:31;;;;;;;5.57;1.30;;;;;;;;;;4965648;28;93454;-72
2022/09/27 07:46:57;;;;;;;7.70;1.33;;;;;;;;;;4964406;28;92533;-74
2022/09/27 07:49:24;;;;;;;4.95;1.63;;;;;;;;;;4971024;28;92943;-73
2022/09/27 07:51:50;;;;;;;9.00;1.92;;;;;;;;;;4974486;28;93680;-72
2022/09/27 07:54:16;;;;;;;4.35;1.15;;;;;;;;;;4975107;28;92670;-72
2022/09/27 07:56:46;;;;;;;6.65;1.48;;;;;;;;;;4971881;28;93461;-73
2022/09/27 07:59:12;;;;;;;7.53;1.63;;;;;;;;;;4967363;28;94893;-74
2022/09/27 08:01:38;;;;;;;8.32;1.30;;;;;;;;;;4993936;28;94178;-77
2022/09/27 08:04:05;;;;;;;7.53;1.70;;;;;;;;;;4982733;28;93494;-75
2022/09/27 08:06:31;;;;;;;4.85;1.15;;;;;;;;;;4977853;28;92593;-73
2022/09/27 08:08:58;;;;;;;6.55;1.02;;;;;;;;;;4958241;28;92359;-74
2022/09/27 08:11:26;;;;;;;8.90;1.70;;;;;;;;;;4957494;28;95415;-70
2022/09/27 08:13:52;;;;;;;6.45;1.45;;;;;;;;;;4965950;28;92502;-76
2022/09/27 08:16:18;;;;;;;10.38;1.10;;;;;;;;;;4977919;28;93146;-76
2022/09/27 08:18:45;;;;;;;5.38;1.35;;;;;;;;;;4977889;28;94786;-74
2022/09/27 08:21:11;;;;;;;5.13;1.65;;;;;;;;;;4974717;28;93920;-74
2022/09/27 08:23:37;;;;;;;7.55;1.30;;;;;;;;;;4978632;28;95419;-76
2022/09/27 08:26:03;;;;;;;8.38;1.67;;;;;;;;;;4978034;28;92426;-78
2022/09/27 08:28:30;;;;;;;5.53;1.20;;;;;;;;;;4977345;28;93415;-74
2022/09/27 08:30:58;;;;;;;6.75;1.73;;;;;;;;;;4976787;28;93797;-75
2022/09/27 08:33:25;;;;;;;11.02;1.80;;;;;;;;;;4977842;28;92308;-74
2022/09/27 08:35:58;;;;;;;11.35;1.65;;;;;;;;;;4977021;28;94680;-77
2022/09/27 08:38:24;;;;;;;5.70;1.52;;;;;;;;;;4976843;28;93426;-71
2022/09/27 08:40:58;;;;;;;6.50;1.35;;;;;;;;;;4976888;28;91639;-71
2022/09/27 08:43:40;;;;;;;8.50;2.17;;;;;;;;;;4976909;28;92858;-76
2022/09/27 08:46:09;;;;;;;11.30;2.25;;;;;;;;;;4980107;28;93291;-73
2022/09/27 08:48:36;;;;;;;8.27;2.33;;;;;;;;;;4973735;28;94824;-74
2022/09/27 08:51:04;;;;;;;7.63;1.88;;;;;;;;;;4985598;28;93370;-75
2022/09/27 08:53:37;;;;;;;3.95;0.90;;;;;;;;;;4976818;28;93043;-74
2022/09/27 08:56:06;;;;;;;6.88;1.58;;;;;;;;;;4975264;28;92500;-74
2022/09/27 08:58:37;;;;;;;5.97;1.40;;;;;;;;;;4976167;28;94389;-75
2022/09/27 09:01:05;;;;;;;5.50;1.27;;;;;;;;;;4976988;28;93395;-74
2022/09/27 09:03:36;;;;;;;7.65;1.83;;;;;;;;;;4984296;28;93047;-76
2022/09/27 09:06:05;;;;;;;5.45;1.50;;;;;;;;;;4968907;28;93720;-72
2022/09/27 09:08:44;;;;;;;6.65;1.05;;;;;;;;;;4983781;28;92555;-73
2022/09/27 09:14:19;;;;;;;10.52;1.17;;;;;;;;;;4974993;28;94872;-73
2022/09/27 09:16:50;;;;;;;4.85;1.20;;;;;;;;;;4974119;28;97161;-72
2022/09/27 09:19:16;;;;;;;5.32;1.00;;;;;;;;;;4977931;28;93399;-72
2022/09/27 09:21:54;;;;;;;5.55;1.08;;;;;;;;;;4984879;28;92522;-73
2022/09/27 09:24:38;;;;;;;4.15;0.90;;;;;;;;;;4985631;28;95132;-72
2022/09/27 09:27:23;;;;;;;4.60;0.68;;;;;;;;;;4975303;28;93485;-71
2022/09/27 09:29:57;;;;;;;7.18;1.55;;;;;;;;;;4978306;28;92549;-70
2022/09/27 09:32:43;;;;;;;5.63;1.13;;;;;;;;;;4989092;28;93130;-70
2022/09/27 09:35:16;;;;;;;3.70;1.20;;;;;;;;;;4972956;28;92584;-71
2022/09/27 09:37:51;;;;;;;1.95;0.85;;;;;;;;;;4956405;28;93104;-71
2022/09/27 09:40:18;;;;;;;11.40;1.50;;;;;;;;;;4972831;28;95802;-71
2022/09/27 09:42:49;;;;;;;5.15;1.02;;;;;;;;;;4975308;28;92410;-70
2022/09/27 09:45:26;;;;;;;4.63;1.13;;;;;;;;;;4971652;28;93087;-72
2022/09/27 09:48:01;;;;;;;2.67;0.80;;;;;;;;;;4970302;28;93493;-68
2022/09/27 09:50:30;;;;;;;4.03;1.15;;;;;;;;;;4994070;28;92388;-73
2022/09/27 09:53:03;;;;;;;6.47;1.70;;;;;;;;;;4981613;28;94138;-73
2022/09/27 09:55:31;;;;;;;3.10;1.17;;;;;;;;;;4974897;28;92757;-72
2022/09/27 09:58:04;;;;;;;4.78;0.70;;;;;;;;;;4976104;28;93122;-72
2022/09/27 10:00:30;;;;;;;2.03;0.77;;;;;;;;;;4974446;28;93729;-75
2022/09/27 10:02:58;;;;;;;6.40;0.95;;;;;;;;;;4974439;28;92849;-74
2022/09/27 10:05:26;;;;;;;1.05;0.60;;;;;;;;;;4987589;28;95149;-74
2022/09/27 10:07:53;;;;;;;5.70;0.98;;;;;;;;;;4976185;28;94368;-73
2022/09/27 10:10:20;;;;;;;8.07;1.52;;;;;;;;;;4976296;28;92545;-73
2022/09/27 10:12:47;;;;;;;13.45;6.93;;;;;;;;;;4995584;28;93063;-72
2022/09/27 10:15:32;;;;;;;2.78;1.10;;;;;;;;;;4990444;28;93422;-72
2022/09/27 10:17:58;;;;;;;2.80;0.75;;;;;;;;;;4975633;28;93064;-73
2022/09/27 10:20:43;;;;;;;2.20;0.90;;;;;;;;;;4975293;28;93456;-73
2022/09/27 10:23:20;;;;;;;3.38;1.02;;;;;;;;;;4973618;28;91707;-74
2022/09/27 10:26:02;;;;;;;2.50;0.75;;;;;;;;;;4963767;28;92476;-74
2022/09/27 10:28:33;;;;;;;4.13;1.42;;;;;;;;;;4975629;28;93443;-75
2022/09/27 10:31:01;;;;;;;2.65;1.30;;;;;;;;;;4973674;28;94793;-71
2022/09/27 10:33:30;;;;;;;7.30;1.80;;;;;;;;;;4972638;28;95504;-72
2022/09/27 10:35:57;;;;;;;3.63;1.67;;;;;;;;;;4987473;28;94623;-73
2022/09/27 10:38:25;;;;;;;3.17;1.40;;;;;;;;;;4978294;28;92423;-76
2022/09/27 10:40:54;;;;;;;7.93;4.10;;;;;;;;;;4972430;28;93392;-75
2022/09/27 10:43:32;;;;;;;7.32;1.73;;;;;;;;;;4970057;28;92475;-77
2022/09/27 10:45:58;;;;;;;5.32;2.03;;;;;;;;;;4970159;28;93458;-74
2022/09/27 10:48:25;;;;;;;5.53;1.27;;;;;;;;;;4975191;28;92807;-76
2022/09/27 10:51:00;;;;;;;3.67;1.60;;;;;;;;;;4974267;28;92599;-78
2022/09/27 10:53:27;;;;;;;2.90;1.10;;;;;;;;;;4975028;28;94171;-73
2022/09/27 10:55:54;;;;;;;5.78;1.00;;;;;;;;;;4973873;28;96224;-79
2022/09/27 10:58:38;;;;;;;5.82;1.00;;;;;;;;;;4975920;28;92426;-78
2022/09/27 11:01:07;;;;;;;6.85;1.25;;;;;;;;;;4978800;28;93155;-76
2022/09/27 11:03:38;;;;;;;3.75;1.17;;;;;;;;;;4972469;28;92534;-71
2022/09/27 11:06:22;;;;;;;5.55;0.70;;;;;;;;;;4971918;28;94127;-72
2022/09/27 11:08:52;;;;;;;4.68;1.17;;;;;;;;;;4973834;28;93893;-71
2022/09/27 11:11:20;;;;;;;2.50;0.68;;;;;;;;;;4972704;28;92628;-74
2022/09/27 11:14:13;;;;;;;3.05;0.77;;;;;;;;;;4974626;28;93141;-76
2022/09/27 11:16:52;;;;;;;2.83;1.13;;;;;;;;;;4974314;28;93454;-74
2022/09/27 11:19:29;;;;;;;3.15;1.35;;;;;;;;;;4975216;28;92933;-74
2022/09/27 11:22:14;;;;;;;2.92;1.13;;;;;;;;;;4968707;28;94888;-74
2022/09/27 11:25:00;;;;;;;4.07;1.08;;;;;;;;;;4958215;28;93267;-74
2022/09/27 11:27:26;;;;;;;4.05;1.00;;;;;;;;;;4974556;28;93019;-74
2022/09/27 11:30:01;;;;;;;5.60;1.98;;;;;;;;;;4974954;28;94464;-74
2022/09/27 11:32:48;;;;;;;7.22;1.58;;;;;;;;;;4970902;28;92899;-74
2022/09/27 11:35:32;;;;;;;4.10;1.63;;;;;;;;;;4981587;28;93128;-74
2022/09/27 11:38:17;;;;;;;1.00;0.80;;;;;;;;;;4977914;28;93412;-74
2022/09/27 11:41:07;;;;;;;4.13;1.15;;;;;;;;;;4978052;28;93075;-74
2022/09/27 11:43:36;;;;;;;7.55;1.20;;;;;;;;;;4978381;28;93434;-74
2022/09/27 11:46:10;;;;;;;3.45;1.08;;;;;;;;;;4977128;28;94505;-74
2022/09/27 11:49:02;;;;;;;22.95;16.13;;;;;;;;;;4971944;28;94844;-74
2022/09/27 11:51:47;;;;;;;9.07;6.20;;;;;;;;;;4981825;28;93768;-74
2022/09/27 11:54:16;;;;;;;6.82;4.20;;;;;;;;;;4976857;28;92527;-74
2022/09/27 11:56:47;;;;;;;1.88;0.85;;;;;;;;;;4982670;28;93306;-74
2022/09/27 11:59:27;;;;;;;2.38;0.98;;;;;;;;;;4997257;28;93848;-74
2022/09/27 12:01:59;;;;;;;14.25;1.83;;;;;;;;;;4980248;28;92533;-74
2022/09/27 12:04:28;;;;;;;3.53;0.73;;;;;;;;;;4971250;28;93348;-74
2022/09/27 12:06:58;;;;;;;2.40;1.00;;;;;;;;;;4974642;28;93979;-74
2022/09/27 12:09:29;;;;;;;2.47;0.60;;;;;;;;;;4979701;28;92501;-74
2022/09/27 12:12:01;;;;;;;3.13;0.90;;;;;;;;;;4985924;28;93269;-74
2022/09/27 12:14:32;;;;;;;4.28;1.08;;;;;;;;;;4995265;28;95463;-74
2022/09/27 12:17:01;;;;;;;1.13;0.70;;;;;;;;;;4973831;28;95670;-74
2022/09/27 12:19:35;;;;;;;2.08;0.98;;;;;;;;;;4979657;28;94510;-74
2022/09/27 12:22:03;;;;;;;4.25;1.40;;;;;;;;;;4992490;28;92477;-73
2022/09/27 12:24:30;;;;;;;1.95;0.90;;;;;;;;;;4989164;28;93168;-73
2022/09/27 12:26:58;;;;;;;2.83;1.02;;;;;;;;;;4976301;28;93393;-76
2022/09/27 12:29:32;;;;;;;7.95;2.05;;;;;;;;;;4991346;28;92556;-73
2022/09/27 12:31:59;;;;;;;2.83;0.95;;;;;;;;;;4971558;28;91732;-72
2022/09/27 12:34:34;;;;;;;2.40;0.70;;;;;;;;;;4970030;28;92526;-71
2022/09/27 12:37:04;;;;;;;2.63;0.90;;;;;;;;;;4980311;28;93268;-71
2022/09/27 12:39:30;;;;;;;2.00;1.00;;;;;;;;;;4982862;28;95809;-71
2022/09/27 12:42:04;;;;;;;2.88;0.65;;;;;;;;;;4975978;28;92488;-71
2022/09/27 12:44:36;;;;;;;1.20;0.80;;;;;;;;;;4978466;28;93043;-71
2022/09/27 12:47:05;;;;;;;3.95;1.13;;;;;;;;;;4967778;28;93372;-71
2022/09/27 12:49:50;;;;;;;4.05;0.90;;;;;;;;;;4962682;28;92520;-71
2022/09/27 12:52:24;;;;;;;6.53;1.23;;;;;;;;;;4957328;28;93141;-71
2022/09/27 12:55:10;;;;;;;3.08;0.70;;;;;;;;;;4996266;28;92908;-71
2022/09/27 12:57:54;;;;;;;3.92;1.10;;;;;;;;;;4989705;28;93122;-72
2022/09/27 13:00:32;;;;;;;5.88;1.58;;;;;;;;;;4978571;28;93684;-70
2022/09/27 13:03:08;;;;;;;4.47;1.50;;;;;;;;;;4988288;28;92482;-70
2022/09/27 13:05:48;;;;;;;4.00;1.55;;;;;;;;;;4983239;28;94955;-71
2022/09/27 13:08:23;;;;;;;3.20;1.20;;;;;;;;;;4975255;28;94206;-71
2022/09/27 13:10:54;;;;;;;4.32;1.13;;;;;;;;;;4977433;28;92877;-71
2022/09/27 13:13:21;;;;;;;2.17;1.00;;;;;;;;;;4987559;28;93307;-71
2022/09/27 13:15:48;;;;;;;2.45;1.35;;;;;;;;;;4976710;28;93904;-70
2022/09/27 13:18:30;;;;;;;4.20;1.27;;;;;;;;;;4981961;28;92901;-73
2022/09/27 13:20:57;;;;;;;5.00;2.00;;;;;;;;;;4979088;28;93512;-72
2022/09/27 13:23:27;;;;;;;2.60;1.30;;;;;;;;;;4980875;28;93232;-74
2022/09/27 13:25:54;;;;;;;2.90;1.15;;;;;;;;;;4997279;28;92389;-73
2022/09/27 13:28:27;;;;;;;3.92;1.17;;;;;;;;;;4992756;28;93969;-73
2022/09/27 13:30:54;;;;;;;1.58;0.65;;;;;;;;;;4981283;28;94927;-73
2022/09/27 13:33:28;;;;;;;2.10;0.80;;;;;;;;;;4975990;28;95727;-72
2022/09/27 13:36:12;;;;;;;2.15;1.00;;;;;;;;;;4974612;28;93435;-72
2022/09/27 13:38:39;;;;;;;7.20;1.38;;;;;;;;;;4976762;28;92491;-73
2022/09/27 13:41:18;;;;;;;3.47;1.25;;;;;;;;;;4978821;28;94128;-73
2022/09/27 13:43:50;;;;;;;6.95;1.75;;;;;;;;;;4974166;28;94063;-73
2022/09/27 13:46:18;;;;;;;2.78;1.20;;;;;;;;;;4988077;28;93278;-73
2022/09/27 13:48:48;;;;;;;3.42;1.30;;;;;;;;;;4996714;28;92416;-73
2022/09/27 13:51:18;;;;;;;2.55;1.50;;;;;;;;;;4980487;28;92562;-73
2022/09/27 13:53:54;;;;;;;4.03;1.00;;;;;;;;;;4975683;28;94257;-73
2022/09/27 13:56:47;;;;;;;6.63;1.20;;;;;;;;;;4973692;28;96780;-73
2022/09/27 13:59:23;;;;;;;5.28;1.30;;;;;;;;;;4975692;28;92949;-73
2022/09/27 14:01:51;;;;;;;2.20;1.13;;;;;;;;;;4975807;28;93138;-73
2022/09/27 14:04:26;;;;;;;1.50;0.95;;;;;;;;;;4978115;28;93273;-73
2022/09/27 14:06:57;;;;;;;1.90;1.30;;;;;;;;;;4976011;28;93742;-73
2022/09/27 14:09:34;;;;;;;4.40;0.98;;;;;;;;;;4972986;28;93444;-73
2022/09/27 14:12:02;;;;;;;3.80;1.15;;;;;;;;;;4974696;28;92404;-73
2022/09/27 14:14:31;;;;;;;1.95;0.80;;;;;;;;;;4976140;28;92981;-73
2022/09/27 14:16:59;;;;;;;1.60;0.90;;;;;;;;;;4975626;28;94385;-73
2022/09/27 14:19:26;;;;;;;3.30;1.10;;;;;;;;;;4983914;28;92422;-73
2022/09/27 14:21:52;;;;;;;3.03;0.82;;;;;;;;;;4973743;28;94820;-73
2022/09/27 14:24:41;;;;;;;4.18;0.80;;;;;;;;;;4977710;28;93469;-73
2022/09/27 14:27:18;;;;;;;5.15;1.15;;;;;;;;;;4956277;28;93094;-73
2022/09/27 14:29:46;;;;;;;11.05;5.72;;;;;;;;;;4956359;28;94406;-73
2022/09/27 14:32:17;;;;;;;4.13;1.60;;;;;;;;;;4965704;28;92387;-73
2022/09/27 14:34:44;;;;;;;1.90;0.70;;;;;;;;;;4973937;28;93085;-73
2022/09/27 14:37:25;;;;;;;4.90;1.52;;;;;;;;;;4980549;28;94887;-74
2022/09/27 14:39:52;;;;;;;8.85;2.40;;;;;;;;;;4975067;28;91835;-75
2022/09/27 14:42:20;;;;;;;4.20;1.42;;;;;;;;;;4974531;28;92521;-73
2022/09/27 14:44:46;;;;;;;4.35;1.83;;;;;;;;;;4972310;28;94679;-72
2022/09/27 14:47:18;;;;;;;4.07;1.30;;;;;;;;;;4976987;28;95181;-72
2022/09/27 14:50:07;;;;;;;2.05;1.58;;;;;;;;;;4972324;28;94042;-72
2022/09/27 14:52:34;;;;;;;2.53;1.35;;;;;;;;;;4973266;28;92471;-72
2022/09/27 14:55:04;;;;;;;24.85;2.33;;;;;;;;;;4988059;28;92923;-73
2022/09/27 14:57:33;;;;;;;2.03;1.65;;;;;;;;;;4992437;28;93327;-71
2022/09/27 15:00:02;;;;;;;5.22;1.38;;;;;;;;;;4971369;28;92566;-72
2022/09/27 15:02:29;;;;;;;3.00;1.80;;;;;;;;;;4973023;28;93059;-71
2022/09/27 15:04:55;;;;;;;5.53;1.70;;;;;;;;;;4972980;28;93732;-72
2022/09/27 15:07:22;;;;;;;4.63;1.48;;;;;;;;;;4974136;28;92420;-72
2022/09/27 15:09:49;;;;;;;3.17;1.92;;;;;;;;;;4975409;28;94455;-72